Flight Track Log - Related Links

Times and Time Zones

All times are in EST time to prevent confusion due to time zone crossing. See the N583SD flight status page for this flight to view local times or setup timezone preferences in your user account.

Time Position Orientation Groundspeed Altitude Reporting Facility
EST Latitude Longitude Course Direction KTS MPH feet Rate Location/Type
Sun 08:20:58 PM 40.1022 -91.2308 North 261 300 10,600  Level Kansas City Center
Sun 08:22:00 PM 40.1822 -91.2361 357° North 281 323 14,300 3,242 Climbing Kansas City Center
Sun 08:23:02 PM 40.2636 -91.2406 358° North 289 333 17,300 2,226 Climbing Kansas City Center
Sun 08:24:04 PM 40.3456 -91.2444 358° North 301 346 18,900 1,306 Climbing Kansas City Center
Sun 08:25:00 PM 40.4018 -91.2068 356° North  Level FlightAware Approximate
Sun 08:25:06 PM 40.4656 -91.2503 358° North 340 391 20,000  Level Kansas City Center
Sun 08:26:08 PM 40.5750 -91.2553 358° North 373 429 20,600 1,180 Climbing Kansas City Center
Sun 08:27:08 PM 40.6819 -91.2628 357° North 381 438 22,400 1,770 Climbing Chicago Center
Sun 08:28:10 PM 40.7897 -91.2669 358° North 384 442 24,200 1,742 Climbing Chicago Center
Sun 08:29:12 PM 40.8964 -91.2711 358° North 383 441 26,000 1,742 Climbing Chicago Center
Sun 08:30:14 PM 41.0022 -91.2775 357° North 380 437 27,800 1,742 Climbing Chicago Center
Sun 08:31:16 PM 41.1086 -91.2828 358° North 381 438 29,600 1,597 Climbing Chicago Center
Sun 08:32:18 PM 41.2122 -91.2886 358° North 374 430 31,100 1,584 Climbing Chicago Center
Sun 08:33:21 PM 41.3383 -91.2953 358° North 375 432 32,900 912 Climbing Chicago Center
Sun 08:34:23 PM 41.4450 -91.3006 358° North 382 440 33,000 48 Climbing Chicago Center
Sun 08:35:25 PM 41.5678 -91.3072 358° North 414 476 33,000  Level Chicago Center
Sun 08:36:27 PM 41.6875 -91.3119 358° North 430 495 33,000 532 Level Chicago Center
Sun 08:37:29 PM 41.8075 -91.3194 357° North 434 499 34,100 1,065 Climbing Chicago Center
Sun 08:38:31 PM 41.9236 -91.3233 359° North 422 486 35,200 919 Climbing Chicago Center
Sun 08:39:33 PM 42.0589 -91.3314 357° North 410 472 36,000 387 Climbing Chicago Center
Sun 08:40:35 PM 42.1744 -91.3372 358° North 416 479 36,000  Level Chicago Center
Sun 08:41:37 PM 42.2942 -91.3425 358° North 428 493 36,000  Level Chicago Center
Sun 08:42:39 PM 42.4150 -91.3503 357° North 437 503 36,000  Level Chicago Center
Sun 08:43:41 PM 42.5353 -91.3561 358° North 439 505 36,000 -290 Level Chicago Center
Sun 08:44:43 PM 42.6764 -91.3633 358° North 433 498 35,400 -774 Descending Chicago Center
Sun 08:45:45 PM 42.7878 -91.3694 358° North 416 479 34,400 -919 Descending Chicago Center
Sun 08:46:47 PM 42.8967 -91.3767 357° North 402 463 33,500 -919 Descending Chicago Center
Sun 08:47:49 PM 43.0069 -91.3822 358° North 403 464 32,500 -1,065 Descending Chicago Center
Sun 08:48:51 PM 43.1411 -91.3897 358° North 406 467 31,300 -1,009 Descending Chicago Center
Sun 08:49:36 PM 43.2089 -91.3917 359° North 407 468 30,700 -1,009 Descending Minneapolis Center
Sun 08:50:38 PM 43.3414 -91.3972 358° North 403 464 29,500 -1,016 Descending Minneapolis Center
Sun 08:51:40 PM 43.4536 -91.4036 358° North 406 467 28,600 -976 Descending Minneapolis Center
Sun 08:52:41 PM 43.5608 -91.4094 358° North 397 457 27,500 -1,220 Descending Minneapolis Center
Sun 08:53:43 PM 43.6664 -91.4164 357° North 386 444 26,100 -1,403 Descending Minneapolis Center
Sun 08:54:45 PM 43.7719 -91.4219 358° North 385 443 24,600 -1,452 Descending Minneapolis Center
Sun 08:55:47 PM 43.8717 -91.4267 358° North 371 427 23,100 -1,805 Descending Minneapolis Center
Sun 08:56:48 PM 43.9903 -91.4333 358° North 360 414 20,900 -2,098 Descending Minneapolis Center
Sun 08:57:50 PM 44.0992 -91.4381 358° North 365 420 18,800 -2,177 Descending Minneapolis Center
Sun 08:58:52 PM 44.1975 -91.4422 358° North 359 413 16,400 -2,419 Descending Minneapolis Center
Sun 08:59:54 PM 44.2917 -91.4497 357° North 346 398 13,800 -2,565 Descending Minneapolis Center
Sun 09:00:56 PM 44.3886 -91.4564 357° North 349 402 11,100 -2,634 Descending Minneapolis Center
Sun 09:01:57 PM 44.4975 -91.4611 358° North 346 398 8,400 -1,951 Descending Minneapolis Center
Sun 09:02:59 PM 44.5703 -91.4650 358° North 278 320 7,100 -1,258 Descending Minneapolis Center
Sun 09:04:01 PM 44.6486 -91.4503 North 270 311 5,800 -1,226 Descending Minneapolis Center
Sun 09:06:05 PM 44.7783 -91.4308 North 246 283 3,300 -1,210 Descending Minneapolis Center
Sun 09:08:00 PM 44.8500 -91.4833 340° North  Level FlightAware Approximate
Sun 09:15:00 PM 44.8658 -91.4843 340° North  Level Estimated

Login

Don't have an account? Register now (free) for customized features, flight alerts, and more!